Curtis, NE (69025)

5:53 PM CDT on August 01, 2015 (GMT -0500)
McCook Municipal | | Change Station
CLOSE
Current Station
Airport
Location: McCook,
Elevation: 2579 ft
Nearby Weather Stations

Elev 2579 ft 40.20 °N, 100.59 °W | Updated 1 hour ago

Clear
Clear
90 °F
Feels Like 89 °F
N
13
Wind Variable Wind from SE

Today
High -- | Low -- °F
--% Chance of Precip.
Yesterday
High -- | Low -- °F
Precip. -- in
6:38 AM 8:57 PM
Full, 97% visible
Pressure 29.91 in
Visibility 10.0 miles
Clouds Few 8000 ft
Scattered Clouds 10000 ft
Heat Index 89 °F
Dew Point 59 °F
Humidity 35%
Rainfall 0.00 in
Snow Depth Not available.
UV 5 out of 12
Pollen 7.70 out of 12
Air Quality Not available.
Flu Activity Not available.
METAR KMCK 012153Z AUTO 13011KT 10SM FEW080 SCT100 32/15 A2999 RMK AO2 SLP126 T03220150

More Conditions Fewer Conditions

Pressure 29.91 in
Visibility 10.0 miles
Clouds Few 8000 ft
Scattered Clouds 10000 ft
Heat Index 89 °F
Dew Point 59 °F
Humidity 35%
Rainfall 0.00 in
Snow Depth Not available.
UV 5 out of 12
Pollen 7.70 out of 12
Air Quality Not available.
Flu Activity Not available.
METAR KMCK 012153Z AUTO 13011KT 10SM FEW080 SCT100 32/15 A2999 RMK AO2 SLP126 T03220150

More Conditions Fewer Conditions

10-Day Weather Forecast

×

Almanac

Astronomy

Aug. 01, 2015 Rise Set
Actual Time
Civil Twilight
Nautical Twilight
Astronomical Twilight
Moon
Length of Visible Light
Length of Day
Tomorrow will be .
, % of the Moon is Illuminated

Today's Extremes

State Highs State Lows

Community

WunderPhotos

Upload Photos

1,843,087 photos uploaded!

WunderBlogs® & News

Nearby

Air Quality

  Air Quality AQ Index Pollutant
Not available.

Snow Depth

Station Depth Elevation

Earthquake Activity

City Distance Mag. Time & Date
Minimum magnitude displayed is 2.5.

Coastal Water Temperatures

Place Temperature

Stations

Nearby Weather Stations

Station Location Temp. Windchill Dew Point Humidity Wind Precip. Elev Updated Type